ITY001 LIRN-LICA
Flight info
| Callsign | ITY001 |
|---|---|
| Flight time | 0h 35m |
| Altitude | 29000 |
| Route | DELER DCT CDC |
| Aircraft | A319/M-SDE3FGHIRWY/LB1 |
Departure
| Time | 2026-04-28 17:21 |
|---|---|
| Airport | Naples International Airport (LIRN) |
Arrival
| Time | 2026-04-28 17:56 |
|---|---|
| Airport | Lamezia Terme Sant'Eufemia International Airport (LICA) |
| Time | Latitude | Longitude | Altitude | Speed | Heading |
|---|---|---|---|---|---|
| 2026-04-28 16:57 | 40.87879 | 14.28171 | 307 ft | 0 kts | 166° |
| 2026-04-28 17:08 | 40.87884 | 14.28169 | 309 ft | 2 kts | 163° |
| 2026-04-28 17:08 | 40.87900 | 14.28162 | 308 ft | 2 kts | 159° |
| 2026-04-28 17:08 | 40.87915 | 14.28154 | 307 ft | 2 kts | 149° |
| 2026-04-28 17:09 | 40.87929 | 14.28142 | 308 ft | 2 kts | 134° |
| 2026-04-28 17:09 | 40.87939 | 14.28125 | 305 ft | 2 kts | 105° |
| 2026-04-28 17:09 | 40.87940 | 14.28103 | 307 ft | 2 kts | 69° |
| 2026-04-28 17:09 | 40.87936 | 14.28089 | 307 ft | 1 kts | 49° |
| 2026-04-28 17:10 | 40.87935 | 14.28087 | 307 ft | 0 kts | 47° |
| 2026-04-28 17:13 | 40.87956 | 14.28110 | 308 ft | 10 kts | 34° |
| 2026-04-28 17:13 | 40.88037 | 14.28171 | 305 ft | 12 kts | 46° |
| 2026-04-28 17:13 | 40.88065 | 14.28295 | 302 ft | 17 kts | 93° |
| 2026-04-28 17:13 | 40.88049 | 14.28463 | 296 ft | 20 kts | 97° |
| 2026-04-28 17:14 | 40.88059 | 14.28628 | 292 ft | 17 kts | 56° |
| 2026-04-28 17:14 | 40.88136 | 14.28766 | 286 ft | 21 kts | 51° |
| 2026-04-28 17:14 | 40.88233 | 14.28934 | 279 ft | 25 kts | 53° |
| 2026-04-28 17:14 | 40.88346 | 14.29133 | 271 ft | 29 kts | 53° |
| 2026-04-28 17:15 | 40.88473 | 14.29359 | 262 ft | 32 kts | 52° |
| 2026-04-28 17:15 | 40.88620 | 14.29603 | 252 ft | 35 kts | 53° |
| 2026-04-28 17:15 | 40.88775 | 14.29873 | 242 ft | 38 kts | 53° |
| 2026-04-28 17:15 | 40.88918 | 14.30119 | 232 ft | 16 kts | 53° |
| 2026-04-28 17:16 | 40.88995 | 14.30174 | 229 ft | 11 kts | 335° |
| 2026-04-28 17:16 | 40.88998 | 14.30172 | 229 ft | 0 kts | 333° |
| 2026-04-28 17:19 | 40.88999 | 14.30171 | 229 ft | 1 kts | 332° |
| 2026-04-28 17:19 | 40.89034 | 14.30148 | 228 ft | 10 kts | 333° |
| 2026-04-28 17:19 | 40.89074 | 14.30073 | 231 ft | 10 kts | 247° |
| 2026-04-28 17:19 | 40.89067 | 14.30058 | 231 ft | 0 kts | 237° |
| 2026-04-28 17:20 | 40.89047 | 14.30017 | 233 ft | 30 kts | 238° |
| 2026-04-28 17:20 | 40.88755 | 14.29403 | 255 ft | 124 kts | 238° |
| 2026-04-28 17:21 | 40.88195 | 14.28240 | 670 ft | 158 kts | 236° |
| 2026-04-28 17:21 | 40.87539 | 14.27067 | 1573 ft | 161 kts | 222° |
| 2026-04-28 17:21 | 40.86504 | 14.26533 | 2379 ft | 167 kts | 182° |
| 2026-04-28 17:22 | 40.83945 | 14.26850 | 3509 ft | 195 kts | 174° |
| 2026-04-28 17:22 | 40.82599 | 14.27044 | 4443 ft | 194 kts | 174° |
| 2026-04-28 17:22 | 40.81197 | 14.26961 | 5042 ft | 214 kts | 187° |
| 2026-04-28 17:23 | 40.77929 | 14.26332 | 6128 ft | 262 kts | 188° |
| 2026-04-28 17:23 | 40.76094 | 14.25962 | 7022 ft | 270 kts | 188° |
| 2026-04-28 17:23 | 40.74221 | 14.25588 | 8032 ft | 274 kts | 188° |
| 2026-04-28 17:23 | 40.72320 | 14.25214 | 9026 ft | 279 kts | 188° |
| 2026-04-28 17:24 | 40.70383 | 14.24834 | 10027 ft | 283 kts | 188° |
| 2026-04-28 17:24 | 40.68381 | 14.24445 | 10629 ft | 302 kts | 188° |
| 2026-04-28 17:24 | 40.66216 | 14.24026 | 11042 ft | 325 kts | 189° |
| 2026-04-28 17:24 | 40.63943 | 14.23589 | 11746 ft | 334 kts | 189° |
| 2026-04-28 17:25 | 40.61621 | 14.23146 | 12585 ft | 340 kts | 189° |
| 2026-04-28 17:25 | 40.56864 | 14.22237 | 14222 ft | 350 kts | 189° |
| 2026-04-28 17:25 | 40.54435 | 14.21774 | 14970 ft | 355 kts | 189° |
| 2026-04-28 17:26 | 40.51980 | 14.21310 | 15733 ft | 359 kts | 189° |
| 2026-04-28 17:26 | 40.49496 | 14.20838 | 16481 ft | 362 kts | 189° |
| 2026-04-28 17:26 | 40.46987 | 14.20354 | 17227 ft | 366 kts | 189° |
| 2026-04-28 17:26 | 40.44454 | 14.19866 | 17966 ft | 370 kts | 189° |
| 2026-04-28 17:27 | 40.41888 | 14.19373 | 18656 ft | 374 kts | 189° |
| 2026-04-28 17:27 | 40.39300 | 14.18874 | 19291 ft | 378 kts | 189° |
| 2026-04-28 17:27 | 40.36678 | 14.18374 | 19930 ft | 382 kts | 189° |
| 2026-04-28 17:27 | 40.34031 | 14.17871 | 20574 ft | 386 kts | 189° |
| 2026-04-28 17:28 | 40.31357 | 14.17368 | 21216 ft | 390 kts | 189° |
| 2026-04-28 17:28 | 40.25931 | 14.16333 | 22467 ft | 398 kts | 189° |
| 2026-04-28 17:28 | 40.23150 | 14.16135 | 23076 ft | 403 kts | 177° |
| 2026-04-28 17:29 | 40.20371 | 14.16736 | 23648 ft | 408 kts | 164° |
| 2026-04-28 17:29 | 40.17739 | 14.18142 | 24144 ft | 412 kts | 151° |
| 2026-04-28 17:29 | 40.15385 | 14.20288 | 24633 ft | 415 kts | 138° |
| 2026-04-28 17:30 | 40.11581 | 14.26024 | 25588 ft | 421 kts | 129° |
| 2026-04-28 17:30 | 40.07865 | 14.32002 | 26510 ft | 427 kts | 129° |
| 2026-04-28 17:30 | 40.05978 | 14.35022 | 26968 ft | 430 kts | 129° |
| 2026-04-28 17:31 | 40.04077 | 14.38061 | 27417 ft | 434 kts | 129° |
| 2026-04-28 17:31 | 40.00227 | 14.44194 | 28311 ft | 440 kts | 129° |
| 2026-04-28 17:32 | 39.96313 | 14.50420 | 29007 ft | 447 kts | 129° |
| 2026-04-28 17:32 | 39.94366 | 14.53517 | 29053 ft | 434 kts | 129° |
| 2026-04-28 17:32 | 39.90628 | 14.59463 | 29054 ft | 423 kts | 129° |
| 2026-04-28 17:33 | 39.86900 | 14.65377 | 29054 ft | 422 kts | 129° |
| 2026-04-28 17:33 | 39.84404 | 14.69329 | 29054 ft | 422 kts | 129° |
| 2026-04-28 17:34 | 39.79437 | 14.77176 | 29054 ft | 422 kts | 129° |
| 2026-04-28 17:34 | 39.75700 | 14.83056 | 29051 ft | 422 kts | 129° |
| 2026-04-28 17:35 | 39.71971 | 14.88930 | 29047 ft | 421 kts | 129° |
| 2026-04-28 17:35 | 39.68238 | 14.94797 | 29045 ft | 421 kts | 129° |
| 2026-04-28 17:36 | 39.64499 | 15.00645 | 29041 ft | 421 kts | 129° |
| 2026-04-28 17:36 | 39.60765 | 15.06492 | 29037 ft | 421 kts | 129° |
| 2026-04-28 17:37 | 39.57025 | 15.12333 | 29036 ft | 421 kts | 130° |
| 2026-04-28 17:37 | 39.55146 | 15.15255 | 28776 ft | 422 kts | 130° |
| 2026-04-28 17:37 | 39.53267 | 15.18177 | 28505 ft | 422 kts | 130° |
| 2026-04-28 17:38 | 39.51389 | 15.21097 | 28237 ft | 422 kts | 130° |
| 2026-04-28 17:38 | 39.49510 | 15.24020 | 27909 ft | 420 kts | 130° |
| 2026-04-28 17:38 | 39.47652 | 15.26915 | 27314 ft | 417 kts | 130° |
| 2026-04-28 17:38 | 39.45805 | 15.29788 | 26768 ft | 413 kts | 130° |
| 2026-04-28 17:39 | 39.43975 | 15.32630 | 26218 ft | 410 kts | 130° |
| 2026-04-28 17:39 | 39.42156 | 15.35456 | 25687 ft | 407 kts | 130° |
| 2026-04-28 17:39 | 39.38548 | 15.41036 | 24652 ft | 402 kts | 130° |
| 2026-04-28 17:40 | 39.36759 | 15.43794 | 24136 ft | 400 kts | 130° |
| 2026-04-28 17:40 | 39.34976 | 15.46541 | 23636 ft | 398 kts | 130° |
| 2026-04-28 17:40 | 39.33201 | 15.49274 | 23081 ft | 395 kts | 130° |
| 2026-04-28 17:40 | 39.31443 | 15.51982 | 22599 ft | 391 kts | 130° |
| 2026-04-28 17:41 | 39.29704 | 15.54658 | 22105 ft | 388 kts | 131° |
| 2026-04-28 17:41 | 39.27978 | 15.57317 | 21614 ft | 384 kts | 130° |
| 2026-04-28 17:41 | 39.26269 | 15.59951 | 21118 ft | 381 kts | 130° |
| 2026-04-28 17:41 | 39.24572 | 15.62566 | 20619 ft | 379 kts | 130° |
| 2026-04-28 17:42 | 39.22887 | 15.65158 | 20114 ft | 376 kts | 130° |
| 2026-04-28 17:42 | 39.21776 | 15.66864 | 19780 ft | 374 kts | 131° |
| 2026-04-28 17:42 | 39.20102 | 15.69427 | 19278 ft | 372 kts | 131° |
| 2026-04-28 17:42 | 39.17898 | 15.72798 | 18604 ft | 370 kts | 131° |
| 2026-04-28 17:43 | 39.16778 | 15.74510 | 18255 ft | 370 kts | 131° |
| 2026-04-28 17:43 | 39.14592 | 15.77854 | 17547 ft | 366 kts | 131° |
| 2026-04-28 17:43 | 39.12957 | 15.80351 | 17067 ft | 363 kts | 131° |
| 2026-04-28 17:43 | 39.11334 | 15.82828 | 16578 ft | 361 kts | 131° |
| 2026-04-28 17:44 | 39.10244 | 15.84489 | 16255 ft | 359 kts | 131° |
| 2026-04-28 17:44 | 39.08635 | 15.86937 | 15774 ft | 357 kts | 131° |
| 2026-04-28 17:44 | 39.07038 | 15.89368 | 15304 ft | 355 kts | 131° |
| 2026-04-28 17:44 | 39.05446 | 15.91791 | 14827 ft | 354 kts | 131° |
| 2026-04-28 17:45 | 39.03859 | 15.94204 | 14355 ft | 352 kts | 131° |
| 2026-04-28 17:45 | 39.02278 | 15.96609 | 13873 ft | 352 kts | 130° |
| 2026-04-28 17:45 | 39.00704 | 15.99007 | 13356 ft | 350 kts | 130° |
| 2026-04-28 17:45 | 38.99157 | 16.01355 | 12872 ft | 348 kts | 130° |
| 2026-04-28 17:46 | 38.97600 | 16.03711 | 12392 ft | 344 kts | 131° |
| 2026-04-28 17:46 | 38.96055 | 16.06049 | 11900 ft | 342 kts | 131° |
| 2026-04-28 17:46 | 38.94521 | 16.08368 | 11415 ft | 339 kts | 131° |
| 2026-04-28 17:46 | 38.93000 | 16.10668 | 10922 ft | 337 kts | 131° |
| 2026-04-28 17:47 | 38.91492 | 16.12954 | 10436 ft | 334 kts | 131° |
| 2026-04-28 17:47 | 38.90012 | 16.15196 | 10256 ft | 322 kts | 131° |
| 2026-04-28 17:47 | 38.88595 | 16.17341 | 10140 ft | 309 kts | 131° |
| 2026-04-28 17:47 | 38.87667 | 16.18745 | 10024 ft | 302 kts | 131° |
| 2026-04-28 17:48 | 38.85879 | 16.21447 | 9484 ft | 300 kts | 131° |
| 2026-04-28 17:48 | 38.84540 | 16.23467 | 9139 ft | 295 kts | 131° |
| 2026-04-28 17:48 | 38.83218 | 16.25456 | 8510 ft | 292 kts | 131° |
| 2026-04-28 17:48 | 38.81901 | 16.27433 | 7838 ft | 293 kts | 131° |
| 2026-04-28 17:49 | 38.80584 | 16.29406 | 7482 ft | 288 kts | 131° |
| 2026-04-28 17:49 | 38.79291 | 16.31344 | 6900 ft | 285 kts | 131° |
| 2026-04-28 17:49 | 38.78072 | 16.33330 | 6236 ft | 283 kts | 120° |
| 2026-04-28 17:49 | 38.77511 | 16.35719 | 5592 ft | 281 kts | 92° |
| 2026-04-28 17:50 | 38.77851 | 16.38147 | 4912 ft | 278 kts | 65° |
| 2026-04-28 17:50 | 38.78998 | 16.40091 | 4253 ft | 273 kts | 38° |
| 2026-04-28 17:50 | 38.80489 | 16.41495 | 3982 ft | 257 kts | 35° |
| 2026-04-28 17:50 | 38.81887 | 16.42801 | 3920 ft | 241 kts | 35° |
| 2026-04-28 17:51 | 38.83203 | 16.44037 | 3852 ft | 229 kts | 36° |
| 2026-04-28 17:51 | 38.84455 | 16.45217 | 3748 ft | 219 kts | 35° |
| 2026-04-28 17:51 | 38.85752 | 16.46071 | 3659 ft | 204 kts | 9° |
| 2026-04-28 17:51 | 38.87085 | 16.45832 | 3442 ft | 193 kts | 333° |
| 2026-04-28 17:52 | 38.88030 | 16.44636 | 2995 ft | 194 kts | 292° |
| 2026-04-28 17:52 | 38.88333 | 16.42971 | 2684 ft | 190 kts | 276° |
| 2026-04-28 17:52 | 38.88703 | 16.39837 | 2206 ft | 167 kts | 277° |
| 2026-04-28 17:53 | 38.88868 | 16.38454 | 1991 ft | 148 kts | 277° |
| 2026-04-28 17:53 | 38.89015 | 16.37211 | 1803 ft | 136 kts | 276° |
| 2026-04-28 17:53 | 38.89154 | 16.36032 | 1632 ft | 132 kts | 276° |
| 2026-04-28 17:53 | 38.89291 | 16.34872 | 1461 ft | 131 kts | 276° |
| 2026-04-28 17:54 | 38.89425 | 16.33731 | 1290 ft | 128 kts | 277° |
| 2026-04-28 17:54 | 38.89557 | 16.32607 | 1119 ft | 127 kts | 276° |
| 2026-04-28 17:54 | 38.89688 | 16.31492 | 947 ft | 127 kts | 277° |
| 2026-04-28 17:54 | 38.89819 | 16.30383 | 786 ft | 126 kts | 276° |
| 2026-04-28 17:55 | 38.89950 | 16.29270 | 629 ft | 126 kts | 277° |
| 2026-04-28 17:55 | 38.90080 | 16.28162 | 455 ft | 126 kts | 278° |
| 2026-04-28 17:55 | 38.90210 | 16.27052 | 284 ft | 125 kts | 277° |
| 2026-04-28 17:55 | 38.90335 | 16.25944 | 97 ft | 125 kts | 277° |
| 2026-04-28 17:56 | 38.90456 | 16.24909 | 40 ft | 100 kts | 279° |
| 2026-04-28 17:56 | 38.90540 | 16.24243 | 30 ft | 51 kts | 279° |
| 2026-04-28 17:56 | 38.90578 | 16.23924 | 30 ft | 29 kts | 278° |
| 2026-04-28 17:56 | 38.90629 | 16.23676 | 30 ft | 29 kts | 298° |
| 2026-04-28 17:57 | 38.90736 | 16.23501 | 29 ft | 13 kts | 318° |
| 2026-04-28 17:57 | 38.90813 | 16.23530 | 29 ft | 13 kts | 53° |
| 2026-04-28 17:57 | 38.90833 | 16.23649 | 29 ft | 14 kts | 93° |
| 2026-04-28 17:57 | 38.90817 | 16.23776 | 30 ft | 15 kts | 103° |
| 2026-04-28 17:58 | 38.90821 | 16.23897 | 30 ft | 14 kts | 36° |
| 2026-04-28 17:58 | 38.90906 | 16.23957 | 31 ft | 15 kts | 76° |
| 2026-04-28 17:58 | 38.90890 | 16.24067 | 32 ft | 12 kts | 105° |
| 2026-04-28 17:58 | 38.90841 | 16.24247 | 33 ft | 44 kts | 109° |
| 2026-04-28 17:59 | 38.90827 | 16.24419 | 32 ft | 7 kts | 70° |
| 2026-04-28 17:59 | 38.90863 | 16.24442 | 35 ft | 3 kts | 20° |
| 2026-04-28 17:59 | 38.90881 | 16.24462 | 35 ft | 3 kts | 59° |
| 2026-04-28 17:59 | 38.90869 | 16.24477 | 35 ft | 4 kts | 162° |
| 2026-04-28 18:00 | 38.90853 | 16.24465 | 34 ft | 2 kts | 224° |
| 2026-04-28 18:00 | 38.90851 | 16.24464 | 34 ft | 0 kts | 221° |